Historyczne dane pomiarowe

Dodano dane terminowe – wersja testowa.

Dane z okresu 1951-2018

Wersja bazy: 1.27 [2018-11-28, lista zmian], aktualizacja planowana na 2018-12-07

Dane meteo z obszaru Polski uzyskane na podstawie danych udostępnionych przez Instytut Meteorologii i Gospodarki Wodnej – Państwowy Instytut Badawczy.

 

Wybierz Datę:    

       

TemperaturaWilgotnośćWiatrCiśnienieOpadyŚniegCzas trwania zjawisk
 Stacja t tx tn tng RH VA  wxwx mslp ppp RRR   cm mm wxwxwxwxwxwxwx
1960-11-08 5.4 6.7 4.3 4.7 92.3- 8.0 4.7---- 0.0------------
1960-11-09 4.3 5.5 1.2 0.9 92.8- 7.7 1.0---- 0.2------------
1960-11-10 4.8 9.1 1.1 -2.0 91.8- 5.0 1.7---- 0.0------------
1960-11-11 6.6 7.2 3.4 0.0 98.8- 8.0 1.0---- 0.6------------
1960-11-12 7.0 9.6 4.7 2.2 91.8- 5.0 3.3---- 0.0------------
1960-11-13 7.2 13.2 4.7 0.8 89.8- 4.0 3.0---- 4.3------------
1960-11-14 7.1 7.8 5.1 2.4 98.5- 8.0 3.0---- 19.5------------
1960-11-15 5.8 6.7 5.3 5.2 94.3- 8.0 2.3---- 1.2------------
1960-11-16 6.5 7.6 5.0 5.2 98.5- 8.0 2.0---- 0.0------------
1960-11-17 5.2 6.6 3.9 2.0 98.3- 8.0 5.0---- 3.1------------
1960-11-18 4.1 5.8 1.8 -0.7 92.5- 5.7 0.0---- 0.2------------
1960-11-19 5.1 6.9 1.7 -2.4 85.0- 4.7 4.7---- 0.0------------
1960-11-20 4.3 5.6 2.6 0.9 93.3- 8.0 7.0---- 1.4------------
1960-11-21 0.6 4.6 -2.6 -1.0 92.5- 4.7 3.7---- 0.0------------
1960-11-22 -0.3 2.6 -4.5 -9.0 92.8- 2.3 6.3---- 0.0------------
1960-11-23 0.9 2.2 -0.3 -1.2 95.3- 5.7 8.0---- 0.0------------
1960-11-24 0.9 3.4 -0.3 -0.9 97.3- 7.0 4.0---- 0.0------------
1960-11-25 5.0 8.0 -0.4 -0.7 90.8- 5.7 4.0---- 0.0------------
1960-11-26 6.9 8.5 4.5 1.8 81.3- 5.3 8.7---- 0.0------------
1960-11-27 7.4 8.4 6.0 4.0 84.3- 7.0 8.0---- 0.5------------
1960-11-28 6.2 8.2 4.7 5.0 90.5- 6.3 5.7---- 2.0------------
1960-11-29 3.0 5.2 2.1 1.4 91.0- 8.0 1.7---- 0.0------------
1960-11-30 4.0 5.4 2.3 0.9 89.3- 7.7 7.0---- 3.8------------
1960-12-01 5.9 8.0 3.4 3.1 84.5- 4.0 8.0---- 0.0------------
1960-12-02 7.1 10.8 3.1 -1.5 67.8- 0.0 7.0---- 0.0------------
1960-12-03 3.3 7.4 0.0 -5.1 85.0- 2.7 5.0---- 0.0------------
1960-12-04 5.8 6.8 2.7 0.2 72.5- 7.7 11.0---- 0.0------------
1960-12-05 7.5 10.1 5.7 4.4 80.8- 6.3 9.0---- 0.0------------
1960-12-06 10.0 11.9 4.2 1.6 74.0- 5.3 7.0---- 0.0------------
1960-12-07 11.6 14.0 7.3 1.3 53.3- 7.7 8.0---- 0.0------------
173.6 ms

 

Źródłem pochodzenia danych jest Instytut Meteorologii i Gospodarki Wodnej – Państwowy Instytut Badawczy. Dane Instytutu Meteorologii i Gospodarki Wodnej – Państwowego Instytutu Badawczego zostały przetworzone.

Dane źródłowe można odnaleźć na stronie https://dane.imgw.pl